createdAt,value
2023-01-11T00:02:13.824Z,99339.78
2023-01-11T00:04:41.853Z,99332.84
2023-01-11T00:07:09.911Z,99368.84
2023-01-11T00:09:37.912Z,99336.13
2023-01-11T00:12:05.944Z,99354.63
2023-01-11T00:14:35.367Z,99358.06
2023-01-11T00:17:03.002Z,99337.94
2023-01-11T00:19:30.516Z,99337.28
2023-01-11T00:21:58.067Z,99347.69
2023-01-11T00:24:25.630Z,99342.88
2023-01-11T00:26:53.192Z,99317.47
2023-01-11T00:29:20.725Z,99311.00
2023-01-11T00:31:49.556Z,99334.78
2023-01-11T00:34:17.521Z,99327.31
2023-01-11T00:36:45.000Z,99313.44
2023-01-11T00:39:12.472Z,99320.84
2023-01-11T00:41:57.465Z,99323.34
2023-01-11T00:44:42.439Z,99306.44
2023-01-11T00:47:31.858Z,99294.84
2023-01-11T00:49:59.326Z,99283.94
2023-01-11T00:52:26.754Z,99281.44
2023-01-11T00:54:54.360Z,99283.94
2023-01-11T00:57:21.919Z,99288.84
2023-01-11T00:59:49.496Z,99282.50
2023-01-11T01:02:18.341Z,99304.00
2023-01-11T01:04:46.015Z,99309.16
2023-01-11T01:07:13.563Z,99279.50
2023-01-11T01:09:41.096Z,99291.72
2023-01-11T01:12:09.126Z,99289.25
2023-01-11T01:14:36.447Z,99292.84
2023-01-11T01:17:07.038Z,99285.72
2023-01-11T01:19:37.549Z,99300.31
2023-01-11T01:22:05.319Z,99294.66
2023-01-11T01:24:33.869Z,99303.75
2023-01-11T01:27:01.596Z,99293.97
2023-01-11T01:29:29.074Z,99301.41
2023-01-11T01:31:56.519Z,99287.69
2023-01-11T01:34:24.015Z,99302.88
2023-01-11T01:36:52.778Z,99295.47
2023-01-11T01:39:20.312Z,99302.22
2023-01-11T01:41:48.047Z,99290.44
2023-01-11T01:44:56.011Z,99298.19
2023-01-11T01:47:27.032Z,99293.97
2023-01-11T01:49:54.709Z,99269.97
2023-01-11T01:52:28.867Z,99278.97
2023-01-11T01:54:57.178Z,99271.97
2023-01-11T01:57:28.208Z,99273.09
2023-01-11T01:59:58.058Z,99269.22
2023-01-11T02:02:26.312Z,99264.56
2023-01-11T02:04:55.630Z,99271.03
2023-01-11T02:07:28.038Z,99263.97
2023-01-11T02:09:59.523Z,99262.38
2023-01-11T02:12:30.323Z,99258.19
2023-01-11T02:15:00.606Z,99255.91
2023-01-11T02:17:28.413Z,99258.03
2023-01-11T02:19:58.829Z,99254.69
2023-01-11T02:22:46.332Z,99244.78
2023-01-11T02:25:35.503Z,99250.19
2023-01-11T02:28:09.379Z,99250.47
2023-01-11T02:30:40.238Z,99251.09
2023-01-11T02:33:15.671Z,99245.84
2023-01-11T02:35:48.542Z,99255.75
2023-01-11T02:38:23.144Z,99250.78
2023-01-11T02:40:55.555Z,99241.72
2023-01-11T02:43:45.297Z,99240.88
2023-01-11T02:46:16.030Z,99211.75
2023-01-11T02:48:49.262Z,99228.38
2023-01-11T02:51:20.879Z,99224.75
2023-01-11T02:53:51.240Z,99219.06
2023-01-11T02:56:21.890Z,99230.94
2023-01-11T02:58:52.286Z,99230.28
2023-01-11T03:01:23.306Z,99239.34
2023-01-11T03:03:51.037Z,99236.16
2023-01-11T03:06:21.603Z,99232.97
2023-01-11T03:08:58.601Z,99231.59
2023-01-11T03:11:52.187Z,99214.25
2023-01-11T03:14:28.879Z,99217.81
2023-01-11T03:17:03.331Z,99214.00
2023-01-11T03:19:36.301Z,99209.13
2023-01-11T03:22:08.414Z,99204.00
2023-01-11T03:24:41.922Z,99202.47
2023-01-11T03:27:17.563Z,99208.22
2023-01-11T03:29:51.879Z,99198.88
2023-01-11T03:32:30.137Z,99200.81
2023-01-11T03:35:12.236Z,99202.34
2023-01-11T03:37:43.051Z,99196.78
2023-01-11T03:40:15.492Z,99212.78
2023-01-11T03:43:07.373Z,99179.97
2023-01-11T03:45:39.152Z,99193.16
2023-01-11T03:48:11.113Z,99181.72
2023-01-11T03:50:38.764Z,99179.44
2023-01-11T03:53:07.764Z,99179.97
2023-01-11T03:55:38.896Z,99167.91
2023-01-11T03:58:08.819Z,99189.31
2023-01-11T04:00:38.688Z,99164.25
2023-01-11T04:03:06.877Z,99141.13
2023-01-11T04:05:36.004Z,99171.13
2023-01-11T04:08:03.669Z,99164.94
2023-01-11T04:10:31.266Z,99164.22
2023-01-11T04:12:59.075Z,99158.19
2023-01-11T04:15:26.849Z,99165.44
2023-01-11T04:17:56.230Z,99169.50
2023-01-11T04:20:23.803Z,99173.41
2023-01-11T04:22:51.495Z,99166.47
2023-01-11T04:25:19.179Z,99166.13
2023-01-11T04:27:46.756Z,99171.06
2023-01-11T04:42:51.861Z,99145.19
2023-01-11T04:45:19.761Z,99140.69
2023-01-11T04:47:47.399Z,99158.78
2023-01-11T04:50:15.119Z,99155.88
2023-01-11T04:52:42.713Z,99158.69
2023-01-11T04:55:10.803Z,99162.75
2023-01-11T04:57:39.413Z,99147.91
2023-01-11T05:00:11.102Z,99158.16
2023-01-11T05:02:41.301Z,99140.16
2023-01-11T05:05:10.822Z,99150.56
2023-01-11T05:07:39.290Z,99152.75
2023-01-11T05:10:08.568Z,99163.63
2023-01-11T05:12:38.756Z,99126.81
2023-01-11T05:15:09.792Z,99140.94
2023-01-11T05:17:40.398Z,99132.69
2023-01-11T05:23:06.911Z,99121.06
2023-01-11T06:10:27.978Z,99140.16
2023-01-11T07:23:31.978Z,99151.88
2023-01-11T07:25:59.674Z,99141.31
2023-01-11T07:28:28.436Z,99125.63
2023-01-11T07:30:59.179Z,99146.88
2023-01-11T07:33:27.465Z,99156.97
2023-01-11T07:35:55.346Z,99161.22
2023-01-11T07:38:23.223Z,99151.75
2023-01-11T07:40:52.186Z,99159.97
2023-01-11T07:43:19.999Z,99151.94
2023-01-11T07:45:50.136Z,99164.84
2023-01-11T07:48:21.479Z,99168.63
2023-01-11T07:50:49.426Z,99143.72
2023-01-11T07:53:18.836Z,99137.50
2023-01-11T07:55:47.122Z,99154.53
2023-01-11T07:58:16.747Z,99146.94
2023-01-11T08:03:46.688Z,99156.66
2023-01-11T08:09:02.675Z,99176.91
2023-01-11T08:12:02.575Z,99167.00
2023-01-11T08:14:40.668Z,99179.31
2023-01-11T08:17:09.672Z,99172.38
2023-01-11T08:19:37.440Z,99172.38
2023-01-11T08:22:05.003Z,99173.44
2023-01-11T08:24:32.534Z,99174.97
2023-01-11T08:27:00.276Z,99185.19
2023-01-11T08:29:28.107Z,99188.72
2023-01-11T08:31:57.136Z,99191.50
2023-01-11T08:34:25.525Z,99182.03
2023-01-11T08:36:53.197Z,99201.31
2023-01-11T08:39:20.741Z,99202.06
2023-01-11T08:41:48.273Z,99201.69
2023-01-11T08:44:22.325Z,99197.66
2023-01-11T08:47:02.086Z,99198.94
2023-01-11T08:49:30.407Z,99203.44
2023-01-11T08:51:58.195Z,99201.66
2023-01-11T08:54:26.163Z,99209.47
2023-01-11T08:56:53.678Z,99206.38
2023-01-11T08:59:22.013Z,99217.44
2023-01-11T09:01:49.622Z,99210.69
2023-01-11T09:04:25.310Z,99228.03
2023-01-11T09:06:53.346Z,99212.38
2023-01-11T09:09:20.921Z,99220.44
2023-01-11T09:12:00.181Z,99227.78
2023-01-11T09:14:28.554Z,99223.28
2023-01-11T09:16:56.654Z,99224.03
2023-01-11T09:19:25.554Z,99209.25
2023-01-11T09:21:55.999Z,99234.22
2023-01-11T09:24:23.545Z,99223.44
2023-01-11T09:26:51.090Z,99217.69
2023-01-11T09:29:19.672Z,99221.94
2023-01-11T09:31:47.285Z,99209.41
2023-01-11T09:34:15.159Z,99207.78
2023-01-11T09:36:46.105Z,99233.88
2023-01-11T09:39:16.954Z,99241.50
2023-01-11T09:42:29.283Z,99241.72
2023-01-11T09:45:00.546Z,99245.00
2023-01-11T09:47:32.875Z,99241.94
2023-01-11T09:50:04.561Z,99233.41
2023-01-11T09:52:39.487Z,99243.38
2023-01-11T09:55:10.243Z,99253.25
2023-01-11T09:57:44.798Z,99243.53
2023-01-11T10:00:19.586Z,99253.97
2023-01-11T10:02:59.171Z,99257.34
2023-01-11T10:05:51.287Z,99251.06
2023-01-11T10:18:29.326Z,99254.25
2023-01-11T10:18:29.795Z,99254.19
2023-01-11T10:20:28.722Z,99253.72
2023-01-11T10:22:59.847Z,99260.50
2023-01-11T10:25:34.348Z,99264.69
2023-01-11T10:28:06.630Z,99253.56
2023-01-11T10:30:51.820Z,99260.94
2023-01-11T10:33:38.274Z,99258.91
2023-01-11T10:36:26.315Z,99259.94
2023-01-11T10:39:11.840Z,99268.94
2023-01-11T10:41:52.166Z,99267.03
2023-01-11T10:44:26.626Z,99271.34
2023-01-11T10:46:55.010Z,99278.28
2023-01-11T10:49:32.202Z,99275.81
2023-01-11T10:52:07.360Z,99271.09
2023-01-11T10:54:37.264Z,99273.78
2023-01-11T10:57:18.042Z,99276.81
2023-01-11T11:00:00.917Z,99270.66
2023-01-11T11:02:40.824Z,99282.88
2023-01-11T11:05:22.360Z,99283.31
2023-01-11T11:07:53.988Z,99284.06
2023-01-11T11:10:25.788Z,99284.06
2023-01-11T11:12:59.691Z,99293.38
2023-01-11T11:15:33.725Z,99287.63
2023-01-11T11:18:01.335Z,99287.94
2023-01-11T11:20:30.912Z,99291.41
2023-01-11T11:22:58.499Z,99294.13
2023-01-11T11:25:29.471Z,99279.94
2023-01-11T11:28:02.984Z,99283.38
2023-01-11T11:30:32.563Z,99283.75
2023-01-11T11:33:02.552Z,99287.25
2023-01-11T11:35:31.987Z,99299.09
2023-01-11T11:37:59.548Z,99308.47
2023-01-11T11:40:33.267Z,99301.28
2023-01-11T11:43:13.402Z,99295.03
2023-01-11T11:45:52.054Z,99293.66
2023-01-11T11:48:19.898Z,99305.53
2023-01-11T11:50:48.043Z,99304.28
2023-01-11T11:53:35.379Z,99320.84
2023-01-11T11:56:18.231Z,99327.69
2023-01-11T11:58:49.210Z,99318.22
2023-01-11T12:01:25.732Z,99316.47
2023-01-11T12:03:55.264Z,99328.53
2023-01-11T12:53:32.476Z,99335.81
2023-01-11T12:56:25.095Z,99351.84
2023-01-11T12:58:56.741Z,99354.44
2023-01-11T13:01:45.091Z,99368.38
2023-01-11T13:04:54.052Z,99359.56
2023-01-11T13:07:51.015Z,99355.59
2023-01-11T13:10:48.030Z,99372.22
2023-01-11T13:13:36.269Z,99366.72
2023-01-11T13:16:28.078Z,99371.88
2023-01-11T13:20:25.804Z,99365.28
2023-01-11T13:36:51.179Z,99391.28
2023-01-11T13:39:21.932Z,99392.19
2023-01-11T13:41:51.829Z,99400.06
2023-01-11T13:44:22.313Z,99410.06
2023-01-11T13:46:57.905Z,99417.38
2023-01-11T13:49:48.142Z,99418.94
2023-01-11T13:52:18.623Z,99425.81
2023-01-11T13:54:51.683Z,99427.66
2023-01-11T13:57:25.411Z,99424.31
2023-01-11T13:59:58.098Z,99434.69
2023-01-11T14:02:28.681Z,99440.81
2023-01-11T14:04:59.714Z,99440.81
2023-01-11T14:07:38.432Z,99462.25
2023-01-11T14:10:22.726Z,99454.53
2023-01-11T14:13:08.684Z,99454.44
2023-01-11T14:15:40.846Z,99455.66
2023-01-11T14:18:19.466Z,99459.22
2023-01-11T14:20:55.453Z,99469.16
2023-01-11T14:23:27.361Z,99465.97
2023-01-11T14:26:17.135Z,99475.72
2023-01-11T14:28:54.108Z,99475.06
2023-01-11T14:31:30.711Z,99476.91
2023-01-11T14:34:39.832Z,99481.59
2023-01-11T14:37:19.800Z,99486.66
2023-01-11T14:39:59.537Z,99488.69
2023-01-11T14:43:00.350Z,99478.56
2023-01-11T14:45:36.172Z,99481.38
2023-01-11T14:48:11.166Z,99474.34
2023-01-11T14:50:51.537Z,99477.81
2023-01-11T14:53:21.645Z,99480.88
2023-01-11T14:55:50.501Z,99470.16
2023-01-11T14:58:21.279Z,99486.00
2023-01-11T15:01:10.180Z,99485.50
2023-01-11T15:03:49.086Z,99492.78
2023-01-11T15:06:20.288Z,99493.25
2023-01-11T15:08:49.915Z,99496.84
2023-01-11T15:11:41.803Z,99505.44
2023-01-11T15:14:25.795Z,99499.63
2023-01-11T15:17:12.278Z,99516.16
2023-01-11T15:19:42.380Z,99513.59
2023-01-11T15:22:23.134Z,99510.44
2023-01-11T15:24:56.834Z,99504.44
2023-01-11T15:27:27.422Z,99505.63
2023-01-11T15:29:55.900Z,99506.50
2023-01-11T15:32:27.738Z,99509.22
2023-01-11T15:34:55.775Z,99509.47
2023-01-11T15:37:51.964Z,99511.91
2023-01-11T15:40:21.041Z,99504.31
2023-01-11T15:43:41.953Z,99503.22
2023-01-11T15:46:51.473Z,99504.72
2023-01-11T15:49:54.891Z,99507.72
2023-01-11T15:52:54.243Z,99498.81
2023-01-11T15:55:48.085Z,99506.22
2023-01-11T15:58:33.670Z,99511.81
2023-01-11T16:01:22.289Z,99519.91
2023-01-11T16:04:00.747Z,99525.06
2023-01-11T16:06:36.428Z,99527.22
2023-01-11T16:09:11.649Z,99540.47
2023-01-11T16:11:43.803Z,99546.09
2023-01-11T16:14:30.750Z,99541.09
2023-01-11T16:16:58.468Z,99534.06
2023-01-11T16:19:29.879Z,99549.25
2023-01-11T16:21:59.331Z,99546.94
2023-01-11T16:24:29.594Z,99560.06
2023-01-11T16:26:58.499Z,99563.03
2023-01-11T16:29:27.787Z,99564.66
2023-01-11T16:31:58.291Z,99554.88
2023-01-11T16:34:28.789Z,99549.97
2023-01-11T16:36:57.472Z,99555.41
2023-01-11T16:39:26.708Z,99550.59
2023-01-11T16:41:57.121Z,99548.97
2023-01-11T16:44:33.159Z,99550.47
2023-01-11T16:47:16.712Z,99546.97
2023-01-11T16:49:48.985Z,99548.13
2023-01-11T16:52:45.352Z,99546.81
2023-01-11T16:55:22.044Z,99557.56
2023-01-11T16:57:53.341Z,99554.13
2023-01-11T17:00:39.544Z,99556.06
2023-01-11T17:03:19.489Z,99557.75
2023-01-11T17:06:25.731Z,99564.66
2023-01-11T17:08:54.799Z,99566.66
2023-01-11T17:11:26.596Z,99570.81
2023-01-11T17:14:31.303Z,99582.38
2023-01-11T17:17:01.266Z,99579.38
2023-01-11T17:19:31.062Z,99585.34
2023-01-11T17:22:05.196Z,99575.09
2023-01-11T17:24:35.915Z,99573.06
2023-01-11T17:27:05.523Z,99578.56
2023-01-11T17:29:36.618Z,99569.78
2023-01-11T17:32:06.234Z,99573.09
2023-01-11T17:34:35.103Z,99577.75
2023-01-11T17:37:10.150Z,99583.69
2023-01-11T17:39:39.569Z,99569.28
2023-01-11T17:42:26.038Z,99573.28
2023-01-11T17:45:12.215Z,99575.25
2023-01-11T17:47:40.137Z,99573.75
2023-01-11T17:50:19.255Z,99581.69
2023-01-11T17:52:54.787Z,99577.06
2023-01-11T17:55:23.897Z,99580.06
2023-01-11T17:58:10.289Z,99589.31
2023-01-11T18:00:38.162Z,99593.59
2023-01-11T18:03:10.528Z,99578.88
2023-01-11T18:05:38.169Z,99590.59
2023-01-11T18:08:09.598Z,99590.91
2023-01-11T18:10:39.526Z,99588.09
2023-01-11T18:13:07.103Z,99590.59
2023-01-11T18:15:35.942Z,99585.19
2023-01-11T18:18:05.892Z,99587.66
2023-01-11T18:20:38.677Z,99591.31
2023-01-11T18:23:22.639Z,99595.06
2023-01-11T18:25:50.122Z,99583.84
2023-01-11T18:28:24.602Z,99573.41
2023-01-11T18:30:54.053Z,99585.63
2023-01-11T18:33:23.976Z,99586.53
2023-01-11T18:35:53.361Z,99579.97
2023-01-11T18:38:25.503Z,99585.63
2023-01-11T18:40:53.920Z,99591.75
2023-01-11T18:43:25.995Z,99581.81
2023-01-11T18:45:53.554Z,99592.09
2023-01-11T18:48:21.340Z,99596.66
2023-01-11T18:50:49.297Z,99588.28
2023-01-11T18:53:17.322Z,99588.28
2023-01-11T18:55:47.093Z,99598.34
2023-01-11T18:58:14.582Z,99596.31
2023-01-11T19:00:42.696Z,99592.88
2023-01-11T19:03:11.026Z,99615.69
2023-01-11T19:05:38.782Z,99614.19
2023-01-11T19:08:06.840Z,99612.22
2023-01-11T19:10:34.537Z,99612.41
2023-01-11T19:13:03.398Z,99606.28
2023-01-11T19:15:30.945Z,99609.25
2023-01-11T19:20:25.989Z,99603.66
2023-01-11T19:22:53.473Z,99609.63
2023-01-11T19:25:20.948Z,99604.03
2023-01-11T19:27:49.669Z,99609.00
2023-01-11T19:30:19.052Z,99585.69
2023-01-11T19:32:51.619Z,99607.69
2023-01-11T19:35:19.528Z,99579.88
2023-01-11T19:37:47.065Z,99598.25
2023-01-11T19:40:14.732Z,99594.09
2023-01-11T19:42:42.217Z,99587.50
2023-01-11T19:45:10.549Z,99582.38
2023-01-11T19:47:39.910Z,99589.31
2023-01-11T19:50:07.877Z,99572.13
2023-01-11T19:52:35.353Z,99573.28
2023-01-11T19:55:02.852Z,99565.03
2023-01-11T19:57:30.302Z,99565.84
2023-01-11T19:59:57.779Z,99556.41
2023-01-11T20:02:26.124Z,99546.16
2023-01-11T20:04:55.024Z,99547.00
2023-01-11T20:07:22.492Z,99551.94
2023-01-11T20:09:49.946Z,99547.31
2023-01-11T20:12:17.389Z,99546.81
2023-01-11T20:14:46.159Z,99552.44
2023-01-11T20:17:13.682Z,99548.31
2023-01-11T20:19:43.059Z,99528.56
2023-01-11T20:22:11.999Z,99531.22
2023-01-11T20:24:39.444Z,99538.81
2023-01-11T20:27:06.924Z,99528.22
2023-01-11T20:29:34.498Z,99541.66
2023-01-11T20:32:24.724Z,99532.19
2023-01-11T20:34:49.455Z,99529.66
2023-01-11T20:37:18.523Z,99523.00
2023-01-11T20:39:45.989Z,99513.41
2023-01-11T20:42:13.470Z,99514.72
2023-01-11T20:44:41.056Z,99521.88
2023-01-11T20:47:08.596Z,99517.91
2023-01-11T20:49:36.043Z,99502.16
2023-01-11T20:52:03.643Z,99492.19
2023-01-11T20:54:32.523Z,99492.81
2023-01-11T20:57:05.194Z,99495.63
2023-01-11T20:59:32.679Z,99499.44
2023-01-11T21:02:00.373Z,99494.84
2023-01-11T21:04:27.876Z,99492.19
2023-01-11T21:06:55.335Z,99473.63
2023-01-11T21:09:22.774Z,99479.47
2023-01-11T21:11:53.860Z,99470.34
2023-01-11T21:14:21.618Z,99472.66
2023-01-11T21:16:49.307Z,99475.19
2023-01-11T21:19:17.125Z,99474.53
2023-01-11T21:21:44.783Z,99473.94
2023-01-11T21:24:13.655Z,99451.66
2023-01-11T21:26:42.221Z,99470.72
2023-01-11T21:29:11.425Z,99461.75
2023-01-11T21:31:39.679Z,99444.59
2023-01-11T21:34:07.592Z,99457.50
2023-01-11T21:36:35.220Z,99463.59
2023-01-11T21:39:03.332Z,99464.59
2023-01-11T21:41:49.513Z,99462.47
2023-01-11T21:44:19.548Z,99468.56
2023-01-11T21:46:49.073Z,99469.31
2023-01-11T21:49:17.516Z,99461.63
2023-01-11T21:51:45.043Z,99456.88
2023-01-11T21:54:14.177Z,99457.38
2023-01-11T21:56:42.620Z,99464.28
2023-01-11T21:59:10.148Z,99454.69
2023-01-11T22:01:41.510Z,99458.00
2023-01-11T22:04:10.745Z,99454.41
2023-01-11T22:06:38.735Z,99461.63
2023-01-11T22:09:06.878Z,99444.72
2023-01-11T22:11:34.380Z,99446.72
2023-01-11T22:14:03.189Z,99445.72
2023-01-11T22:16:31.588Z,99444.19
2023-01-11T22:19:01.356Z,99457.97
2023-01-11T22:21:29.146Z,99436.28
2023-01-11T22:23:58.038Z,99442.88
2023-01-11T22:26:26.689Z,99432.53
2023-01-11T22:29:14.956Z,99419.19
2023-01-11T22:31:44.480Z,99443.25
2023-01-11T22:34:14.573Z,99454.03
2023-01-11T22:36:43.034Z,99426.94
2023-01-11T22:39:11.025Z,99434.09
2023-01-11T22:41:40.234Z,99425.16
2023-01-11T22:44:08.497Z,99441.84
2023-01-11T22:46:36.399Z,99424.19
2023-01-11T22:49:13.280Z,99438.06
2023-01-11T22:51:43.008Z,99416.91
2023-01-11T22:54:10.999Z,99388.31
2023-01-11T22:56:39.272Z,99402.03
2023-01-11T22:59:08.100Z,99404.69
2023-01-11T23:01:36.826Z,99387.28
2023-01-11T23:04:05.392Z,99378.75
2023-01-11T23:06:35.799Z,99395.28
2023-01-11T23:09:08.669Z,99378.75
2023-01-11T23:11:55.964Z,99379.09
2023-01-11T23:14:23.697Z,99380.56
2023-01-11T23:16:51.293Z,99376.72
2023-01-11T23:19:20.241Z,99398.34
2023-01-11T23:21:48.273Z,99374.59
2023-01-11T23:24:17.756Z,99375.06
2023-01-11T23:26:45.524Z,99374.75
2023-01-11T23:29:13.254Z,99371.75
2023-01-11T23:31:40.840Z,99365.19
2023-01-11T23:34:08.841Z,99376.03
2023-01-11T23:36:38.127Z,99396.72
2023-01-11T23:39:06.558Z,99362.19
2023-01-11T23:41:53.105Z,99381.03
2023-01-11T23:44:20.631Z,99391.09
2023-01-11T23:47:05.385Z,99385.00
2023-01-11T23:49:33.166Z,99390.28
2023-01-11T23:52:01.074Z,99355.06
2023-01-11T23:54:30.379Z,99371.09
2023-01-11T23:57:00.507Z,99379.50
2023-01-11T23:59:28.095Z,99378.53
